sensor_id;sensor_type;location;lat;lon;timestamp;temperature;humidity
81136;DHT22;70622;50.886;3.890;2023-12-20T00:00:00;6.70;99.90
81136;DHT22;70622;50.886;3.890;2023-12-20T00:02:26;6.80;99.90
81136;DHT22;70622;50.886;3.890;2023-12-20T00:04:51;6.80;99.90
81136;DHT22;70622;50.886;3.890;2023-12-20T00:07:17;6.80;99.90
81136;DHT22;70622;50.886;3.890;2023-12-20T00:09:42;6.70;99.90
81136;DHT22;70622;50.886;3.890;2023-12-20T00:12:08;6.70;99.90
81136;DHT22;70622;50.886;3.890;2023-12-20T00:14:34;6.60;99.90
81136;DHT22;70622;50.886;3.890;2023-12-20T00:16:59;6.70;99.90
81136;DHT22;70622;50.886;3.890;2023-12-20T00:19:28;6.80;99.90
81136;DHT22;70622;50.886;3.890;2023-12-20T00:21:53;6.80;99.90
81136;DHT22;70622;50.886;3.890;2023-12-20T00:24:19;6.70;99.90
81136;DHT22;70622;50.886;3.890;2023-12-20T00:26:45;6.70;99.90
81136;DHT22;70622;50.886;3.890;2023-12-20T00:29:11;6.60;99.90
81136;DHT22;70622;50.886;3.890;2023-12-20T00:31:36;6.60;99.90
81136;DHT22;70622;50.886;3.890;2023-12-20T00:34:02;6.50;99.90
81136;DHT22;70622;50.886;3.890;2023-12-20T00:36:27;6.50;99.90
81136;DHT22;70622;50.886;3.890;2023-12-20T00:38:53;6.40;99.90
81136;DHT22;70622;50.886;3.890;2023-12-20T00:41:18;6.40;99.90
81136;DHT22;70622;50.886;3.890;2023-12-20T00:43:44;6.30;99.90
81136;DHT22;70622;50.886;3.890;2023-12-20T00:46:09;6.30;99.90
81136;DHT22;70622;50.886;3.890;2023-12-20T00:48:35;6.30;99.90
81136;DHT22;70622;50.886;3.890;2023-12-20T00:51:00;6.30;99.90
81136;DHT22;70622;50.886;3.890;2023-12-20T00:53:26;6.30;99.90
81136;DHT22;70622;50.886;3.890;2023-12-20T00:55:52;6.30;99.90
81136;DHT22;70622;50.886;3.890;2023-12-20T00:58:17;6.30;99.90
81136;DHT22;70622;50.886;3.890;2023-12-20T01:00:43;6.10;99.90
81136;DHT22;70622;50.886;3.890;2023-12-20T01:03:09;6.10;99.90
81136;DHT22;70622;50.886;3.890;2023-12-20T01:05:34;6.20;99.90
81136;DHT22;70622;50.886;3.890;2023-12-20T01:08:00;6.10;99.90
81136;DHT22;70622;50.886;3.890;2023-12-20T01:10:28;6.10;99.90
81136;DHT22;70622;50.886;3.890;2023-12-20T01:12:54;6.00;99.90
81136;DHT22;70622;50.886;3.890;2023-12-20T01:15:20;6.00;99.90
81136;DHT22;70622;50.886;3.890;2023-12-20T01:17:45;6.00;99.90
81136;DHT22;70622;50.886;3.890;2023-12-20T01:20:11;6.10;99.90
81136;DHT22;70622;50.886;3.890;2023-12-20T01:22:36;6.10;99.90
81136;DHT22;70622;50.886;3.890;2023-12-20T01:25:02;6.10;99.90
81136;DHT22;70622;50.886;3.890;2023-12-20T01:27:28;6.20;99.90
81136;DHT22;70622;50.886;3.890;2023-12-20T01:29:53;6.30;99.90
81136;DHT22;70622;50.886;3.890;2023-12-20T01:32:19;6.30;99.90
81136;DHT22;70622;50.886;3.890;2023-12-20T01:34:45;6.20;99.90
81136;DHT22;70622;50.886;3.890;2023-12-20T01:37:10;6.20;99.90
81136;DHT22;70622;50.886;3.890;2023-12-20T01:39:36;6.20;99.90
81136;DHT22;70622;50.886;3.890;2023-12-20T01:42:01;6.10;99.90
81136;DHT22;70622;50.886;3.890;2023-12-20T01:44:27;6.20;99.90
81136;DHT22;70622;50.886;3.890;2023-12-20T01:46:53;6.30;99.90
81136;DHT22;70622;50.886;3.890;2023-12-20T01:49:18;6.20;99.90
81136;DHT22;70622;50.886;3.890;2023-12-20T01:51:44;6.30;99.90
81136;DHT22;70622;50.886;3.890;2023-12-20T01:54:10;6.40;99.90
81136;DHT22;70622;50.886;3.890;2023-12-20T01:56:36;6.40;99.90
81136;DHT22;70622;50.886;3.890;2023-12-20T01:59:01;6.30;99.90
81136;DHT22;70622;50.886;3.890;2023-12-20T02:01:27;6.30;99.90
81136;DHT22;70622;50.886;3.890;2023-12-20T02:03:53;6.40;99.90
81136;DHT22;70622;50.886;3.890;2023-12-20T02:06:20;6.40;99.90
81136;DHT22;70622;50.886;3.890;2023-12-20T02:08:46;6.40;99.90
81136;DHT22;70622;50.886;3.890;2023-12-20T02:11:12;6.30;99.90
81136;DHT22;70622;50.886;3.890;2023-12-20T02:13:38;6.30;99.90
81136;DHT22;70622;50.886;3.890;2023-12-20T02:16:03;6.30;99.90
81136;DHT22;70622;50.886;3.890;2023-12-20T02:18:29;6.40;99.90
81136;DHT22;70622;50.886;3.890;2023-12-20T02:20:55;6.40;99.90
81136;DHT22;70622;50.886;3.890;2023-12-20T02:23:21;6.30;99.90
81136;DHT22;70622;50.886;3.890;2023-12-20T02:25:47;6.30;99.90
81136;DHT22;70622;50.886;3.890;2023-12-20T02:28:12;6.20;99.90
81136;DHT22;70622;50.886;3.890;2023-12-20T02:30:38;6.30;99.90
81136;DHT22;70622;50.886;3.890;2023-12-20T02:33:04;6.30;99.90
81136;DHT22;70622;50.886;3.890;2023-12-20T02:35:32;6.30;99.90
81136;DHT22;70622;50.886;3.890;2023-12-20T02:37:58;6.20;99.90
81136;DHT22;70622;50.886;3.890;2023-12-20T02:40:23;6.30;99.90
81136;DHT22;70622;50.886;3.890;2023-12-20T02:42:49;6.30;99.90
81136;DHT22;70622;50.886;3.890;2023-12-20T02:45:14;6.40;99.90
81136;DHT22;70622;50.886;3.890;2023-12-20T02:47:40;6.40;99.90
81136;DHT22;70622;50.886;3.890;2023-12-20T02:50:05;6.50;99.90
81136;DHT22;70622;50.886;3.890;2023-12-20T02:52:31;6.40;99.90
81136;DHT22;70622;50.886;3.890;2023-12-20T02:54:57;6.50;99.90
81136;DHT22;70622;50.886;3.890;2023-12-20T02:57:22;6.60;99.90
81136;DHT22;70622;50.886;3.890;2023-12-20T02:59:48;6.60;99.90
81136;DHT22;70622;50.886;3.890;2023-12-20T03:02:13;6.60;99.90
81136;DHT22;70622;50.886;3.890;2023-12-20T03:04:39;6.60;99.90
81136;DHT22;70622;50.886;3.890;2023-12-20T03:07:04;6.60;99.90
81136;DHT22;70622;50.886;3.890;2023-12-20T03:09:30;6.60;99.90
81136;DHT22;70622;50.886;3.890;2023-12-20T03:11:55;6.60;99.90
81136;DHT22;70622;50.886;3.890;2023-12-20T03:14:21;6.60;99.90
81136;DHT22;70622;50.886;3.890;2023-12-20T03:16:47;6.60;99.90
81136;DHT22;70622;50.886;3.890;2023-12-20T03:19:12;6.50;99.90
81136;DHT22;70622;50.886;3.890;2023-12-20T03:21:38;6.40;99.90
81136;DHT22;70622;50.886;3.890;2023-12-20T03:24:03;6.40;99.90
81136;DHT22;70622;50.886;3.890;2023-12-20T03:26:29;6.40;99.90
81136;DHT22;70622;50.886;3.890;2023-12-20T03:28:54;6.40;99.90
81136;DHT22;70622;50.886;3.890;2023-12-20T03:31:20;6.50;99.90
81136;DHT22;70622;50.886;3.890;2023-12-20T03:33:46;6.50;99.90
81136;DHT22;70622;50.886;3.890;2023-12-20T03:36:11;6.50;99.90
81136;DHT22;70622;50.886;3.890;2023-12-20T03:38:37;6.50;99.90
81136;DHT22;70622;50.886;3.890;2023-12-20T03:41:02;6.60;99.90
81136;DHT22;70622;50.886;3.890;2023-12-20T03:43:28;6.50;99.90
81136;DHT22;70622;50.886;3.890;2023-12-20T03:45:53;6.50;99.90
81136;DHT22;70622;50.886;3.890;2023-12-20T03:48:19;6.40;99.90
81136;DHT22;70622;50.886;3.890;2023-12-20T03:50:44;6.30;99.90
81136;DHT22;70622;50.886;3.890;2023-12-20T03:53:10;6.40;99.90
81136;DHT22;70622;50.886;3.890;2023-12-20T03:55:36;6.40;99.90
81136;DHT22;70622;50.886;3.890;2023-12-20T03:58:01;6.40;99.90
81136;DHT22;70622;50.886;3.890;2023-12-20T04:00:27;6.40;99.90
81136;DHT22;70622;50.886;3.890;2023-12-20T04:02:52;6.30;99.90
81136;DHT22;70622;50.886;3.890;2023-12-20T04:05:18;6.30;99.90
81136;DHT22;70622;50.886;3.890;2023-12-20T04:07:43;6.30;99.90
81136;DHT22;70622;50.886;3.890;2023-12-20T04:10:09;6.40;99.90
81136;DHT22;70622;50.886;3.890;2023-12-20T04:12:34;6.40;99.90
81136;DHT22;70622;50.886;3.890;2023-12-20T04:15:00;6.30;99.90
81136;DHT22;70622;50.886;3.890;2023-12-20T04:17:25;6.40;99.90
81136;DHT22;70622;50.886;3.890;2023-12-20T04:19:51;6.40;99.90
81136;DHT22;70622;50.886;3.890;2023-12-20T04:22:17;6.40;99.90
81136;DHT22;70622;50.886;3.890;2023-12-20T04:24:43;6.30;99.90
81136;DHT22;70622;50.886;3.890;2023-12-20T04:27:09;6.30;99.90
81136;DHT22;70622;50.886;3.890;2023-12-20T04:29:35;6.30;99.90
81136;DHT22;70622;50.886;3.890;2023-12-20T04:32:00;6.20;99.90
81136;DHT22;70622;50.886;3.890;2023-12-20T04:34:26;6.20;99.90
81136;DHT22;70622;50.886;3.890;2023-12-20T04:36:52;6.20;99.90
81136;DHT22;70622;50.886;3.890;2023-12-20T04:39:18;6.10;99.90
81136;DHT22;70622;50.886;3.890;2023-12-20T04:41:43;6.00;99.90
81136;DHT22;70622;50.886;3.890;2023-12-20T04:44:09;5.90;99.90
81136;DHT22;70622;50.886;3.890;2023-12-20T04:46:35;5.90;99.90
81136;DHT22;70622;50.886;3.890;2023-12-20T04:49:01;5.90;99.90
81136;DHT22;70622;50.886;3.890;2023-12-20T04:51:27;5.90;99.90
81136;DHT22;70622;50.886;3.890;2023-12-20T04:53:52;5.80;99.90
81136;DHT22;70622;50.886;3.890;2023-12-20T04:56:18;5.80;99.90
81136;DHT22;70622;50.886;3.890;2023-12-20T04:58:44;5.70;99.90
81136;DHT22;70622;50.886;3.890;2023-12-20T05:01:09;5.70;99.90
81136;DHT22;70622;50.886;3.890;2023-12-20T05:03:35;5.60;99.90
81136;DHT22;70622;50.886;3.890;2023-12-20T05:06:01;5.60;99.90
81136;DHT22;70622;50.886;3.890;2023-12-20T05:08:26;5.60;99.90
81136;DHT22;70622;50.886;3.890;2023-12-20T05:10:53;5.50;99.90
81136;DHT22;70622;50.886;3.890;2023-12-20T05:13:19;5.50;99.90
81136;DHT22;70622;50.886;3.890;2023-12-20T05:15:45;5.50;99.90
81136;DHT22;70622;50.886;3.890;2023-12-20T05:18:11;5.50;99.90
81136;DHT22;70622;50.886;3.890;2023-12-20T05:20:36;5.50;99.90
81136;DHT22;70622;50.886;3.890;2023-12-20T05:23:02;5.40;99.90
81136;DHT22;70622;50.886;3.890;2023-12-20T05:25:28;5.40;99.90
81136;DHT22;70622;50.886;3.890;2023-12-20T05:27:53;5.40;99.90
81136;DHT22;70622;50.886;3.890;2023-12-20T05:30:19;5.40;99.90
81136;DHT22;70622;50.886;3.890;2023-12-20T05:32:45;5.40;99.90
81136;DHT22;70622;50.886;3.890;2023-12-20T05:35:10;5.40;99.90
81136;DHT22;70622;50.886;3.890;2023-12-20T05:37:36;5.40;99.90
81136;DHT22;70622;50.886;3.890;2023-12-20T05:40:02;5.40;99.90
81136;DHT22;70622;50.886;3.890;2023-12-20T05:42:28;5.40;99.90
81136;DHT22;70622;50.886;3.890;2023-12-20T05:44:53;5.40;99.90
81136;DHT22;70622;50.886;3.890;2023-12-20T05:47:19;5.40;99.90
81136;DHT22;70622;50.886;3.890;2023-12-20T05:49:44;5.50;99.90
81136;DHT22;70622;50.886;3.890;2023-12-20T05:52:10;5.60;99.90
81136;DHT22;70622;50.886;3.890;2023-12-20T05:54:36;5.70;99.90
81136;DHT22;70622;50.886;3.890;2023-12-20T05:57:01;5.80;99.90
81136;DHT22;70622;50.886;3.890;2023-12-20T05:59:27;5.80;99.90
81136;DHT22;70622;50.886;3.890;2023-12-20T06:01:53;5.90;99.90
81136;DHT22;70622;50.886;3.890;2023-12-20T06:04:19;5.90;99.90
81136;DHT22;70622;50.886;3.890;2023-12-20T06:06:44;5.90;99.90
81136;DHT22;70622;50.886;3.890;2023-12-20T06:09:10;5.90;99.90
81136;DHT22;70622;50.886;3.890;2023-12-20T06:11:36;5.90;99.90
81136;DHT22;70622;50.886;3.890;2023-12-20T06:14:01;5.90;99.90
81136;DHT22;70622;50.886;3.890;2023-12-20T06:16:27;5.80;99.90
81136;DHT22;70622;50.886;3.890;2023-12-20T06:18:53;5.80;99.90
81136;DHT22;70622;50.886;3.890;2023-12-20T06:21:18;5.80;99.90
81136;DHT22;70622;50.886;3.890;2023-12-20T06:23:44;5.70;99.90
81136;DHT22;70622;50.886;3.890;2023-12-20T06:26:10;5.60;99.90
81136;DHT22;70622;50.886;3.890;2023-12-20T06:28:35;5.60;99.90
81136;DHT22;70622;50.886;3.890;2023-12-20T06:31:01;5.60;99.90
81136;DHT22;70622;50.886;3.890;2023-12-20T06:33:26;5.60;99.90
81136;DHT22;70622;50.886;3.890;2023-12-20T06:35:52;5.60;99.90
81136;DHT22;70622;50.886;3.890;2023-12-20T06:38:18;5.60;99.90
81136;DHT22;70622;50.886;3.890;2023-12-20T06:40:44;5.60;99.90
81136;DHT22;70622;50.886;3.890;2023-12-20T06:43:10;5.50;99.90
81136;DHT22;70622;50.886;3.890;2023-12-20T06:45:35;5.50;99.90
81136;DHT22;70622;50.886;3.890;2023-12-20T06:48:01;5.50;99.90
81136;DHT22;70622;50.886;3.890;2023-12-20T06:50:27;5.50;99.90
81136;DHT22;70622;50.886;3.890;2023-12-20T06:52:53;5.50;99.90
81136;DHT22;70622;50.886;3.890;2023-12-20T06:55:18;5.50;99.90
81136;DHT22;70622;50.886;3.890;2023-12-20T06:57:44;5.50;99.90
81136;DHT22;70622;50.886;3.890;2023-12-20T07:00:10;5.50;99.90
81136;DHT22;70622;50.886;3.890;2023-12-20T07:02:36;5.40;99.90
81136;DHT22;70622;50.886;3.890;2023-12-20T07:05:02;5.50;99.90
81136;DHT22;70622;50.886;3.890;2023-12-20T07:07:27;5.40;99.90
81136;DHT22;70622;50.886;3.890;2023-12-20T07:09:53;5.40;99.90
81136;DHT22;70622;50.886;3.890;2023-12-20T07:12:18;5.40;99.90
81136;DHT22;70622;50.886;3.890;2023-12-20T07:14:45;5.40;99.90
81136;DHT22;70622;50.886;3.890;2023-12-20T07:17:10;5.40;99.90
81136;DHT22;70622;50.886;3.890;2023-12-20T07:19:39;5.30;99.90
81136;DHT22;70622;50.886;3.890;2023-12-20T07:22:05;5.40;99.90
81136;DHT22;70622;50.886;3.890;2023-12-20T07:24:31;5.30;99.90
81136;DHT22;70622;50.886;3.890;2023-12-20T07:26:56;5.40;99.90
81136;DHT22;70622;50.886;3.890;2023-12-20T07:29:22;5.30;99.90
81136;DHT22;70622;50.886;3.890;2023-12-20T07:31:47;5.30;99.90
81136;DHT22;70622;50.886;3.890;2023-12-20T07:34:13;5.30;99.90
81136;DHT22;70622;50.886;3.890;2023-12-20T07:36:38;5.30;99.90
81136;DHT22;70622;50.886;3.890;2023-12-20T07:39:04;5.30;99.90
81136;DHT22;70622;50.886;3.890;2023-12-20T07:41:29;5.30;99.90
81136;DHT22;70622;50.886;3.890;2023-12-20T07:43:55;5.30;99.90
81136;DHT22;70622;50.886;3.890;2023-12-20T07:46:22;5.30;99.90
81136;DHT22;70622;50.886;3.890;2023-12-20T07:48:50;5.30;99.90
81136;DHT22;70622;50.886;3.890;2023-12-20T07:51:16;5.30;99.90
81136;DHT22;70622;50.886;3.890;2023-12-20T07:53:41;5.30;99.90
81136;DHT22;70622;50.886;3.890;2023-12-20T07:56:15;5.30;99.90
81136;DHT22;70622;50.886;3.890;2023-12-20T07:58:40;5.30;99.90
81136;DHT22;70622;50.886;3.890;2023-12-20T08:01:06;5.30;99.90
81136;DHT22;70622;50.886;3.890;2023-12-20T08:03:32;5.30;99.90
81136;DHT22;70622;50.886;3.890;2023-12-20T08:05:57;5.40;99.90
81136;DHT22;70622;50.886;3.890;2023-12-20T08:08:27;5.40;99.90
81136;DHT22;70622;50.886;3.890;2023-12-20T08:10:53;5.40;99.90
81136;DHT22;70622;50.886;3.890;2023-12-20T08:13:19;5.40;99.90
81136;DHT22;70622;50.886;3.890;2023-12-20T08:15:44;5.50;99.90
81136;DHT22;70622;50.886;3.890;2023-12-20T08:18:10;5.50;99.90
81136;DHT22;70622;50.886;3.890;2023-12-20T08:20:35;5.50;99.90
81136;DHT22;70622;50.886;3.890;2023-12-20T08:23:01;5.50;99.90
81136;DHT22;70622;50.886;3.890;2023-12-20T08:25:26;5.60;99.90
81136;DHT22;70622;50.886;3.890;2023-12-20T08:27:52;5.60;99.90
81136;DHT22;70622;50.886;3.890;2023-12-20T08:30:18;5.60;99.90
81136;DHT22;70622;50.886;3.890;2023-12-20T08:32:48;5.60;99.90
81136;DHT22;70622;50.886;3.890;2023-12-20T08:35:13;5.70;99.90
81136;DHT22;70622;50.886;3.890;2023-12-20T08:37:39;5.60;99.90
81136;DHT22;70622;50.886;3.890;2023-12-20T08:40:04;5.60;99.90
81136;DHT22;70622;50.886;3.890;2023-12-20T08:42:31;5.70;99.90
81136;DHT22;70622;50.886;3.890;2023-12-20T08:44:57;5.70;99.90
81136;DHT22;70622;50.886;3.890;2023-12-20T08:47:24;5.70;99.90
81136;DHT22;70622;50.886;3.890;2023-12-20T08:49:49;5.70;99.90
81136;DHT22;70622;50.886;3.890;2023-12-20T08:52:15;5.70;99.90
81136;DHT22;70622;50.886;3.890;2023-12-20T08:54:40;5.80;99.90
81136;DHT22;70622;50.886;3.890;2023-12-20T08:57:09;5.80;99.90
81136;DHT22;70622;50.886;3.890;2023-12-20T08:59:34;5.80;99.90
81136;DHT22;70622;50.886;3.890;2023-12-20T09:02:00;5.90;99.90
81136;DHT22;70622;50.886;3.890;2023-12-20T09:04:25;5.90;99.90
81136;DHT22;70622;50.886;3.890;2023-12-20T09:06:51;6.00;99.90
81136;DHT22;70622;50.886;3.890;2023-12-20T09:09:17;6.00;99.90
81136;DHT22;70622;50.886;3.890;2023-12-20T09:11:42;6.10;99.90
81136;DHT22;70622;50.886;3.890;2023-12-20T09:14:08;6.20;99.90
81136;DHT22;70622;50.886;3.890;2023-12-20T09:16:33;6.20;99.90
81136;DHT22;70622;50.886;3.890;2023-12-20T09:18:59;6.30;99.90
81136;DHT22;70622;50.886;3.890;2023-12-20T09:21:25;6.40;99.90
81136;DHT22;70622;50.886;3.890;2023-12-20T09:23:51;6.60;99.90
81136;DHT22;70622;50.886;3.890;2023-12-20T09:26:16;6.60;99.90
81136;DHT22;70622;50.886;3.890;2023-12-20T09:28:42;6.70;99.90
81136;DHT22;70622;50.886;3.890;2023-12-20T09:31:07;6.70;99.90
81136;DHT22;70622;50.886;3.890;2023-12-20T09:33:33;6.80;99.90
81136;DHT22;70622;50.886;3.890;2023-12-20T09:35:59;6.90;99.90
81136;DHT22;70622;50.886;3.890;2023-12-20T09:38:24;7.00;99.90
81136;DHT22;70622;50.886;3.890;2023-12-20T09:40:50;7.00;99.90
81136;DHT22;70622;50.886;3.890;2023-12-20T09:43:16;7.00;99.90
81136;DHT22;70622;50.886;3.890;2023-12-20T09:45:45;7.00;99.90
81136;DHT22;70622;50.886;3.890;2023-12-20T09:48:11;7.00;99.90
81136;DHT22;70622;50.886;3.890;2023-12-20T09:50:37;6.90;99.90
81136;DHT22;70622;50.886;3.890;2023-12-20T09:53:02;6.90;99.90
81136;DHT22;70622;50.886;3.890;2023-12-20T09:55:30;6.90;99.90
81136;DHT22;70622;50.886;3.890;2023-12-20T09:57:57;6.90;99.90
81136;DHT22;70622;50.886;3.890;2023-12-20T10:00:23;7.00;99.90
81136;DHT22;70622;50.886;3.890;2023-12-20T10:02:50;7.10;99.90
81136;DHT22;70622;50.886;3.890;2023-12-20T10:05:17;7.20;99.90
81136;DHT22;70622;50.886;3.890;2023-12-20T10:07:45;7.30;99.90
81136;DHT22;70622;50.886;3.890;2023-12-20T10:10:11;7.40;99.90
81136;DHT22;70622;50.886;3.890;2023-12-20T10:12:37;7.40;99.90
81136;DHT22;70622;50.886;3.890;2023-12-20T10:15:04;7.40;99.90
81136;DHT22;70622;50.886;3.890;2023-12-20T10:17:29;7.50;99.90
81136;DHT22;70622;50.886;3.890;2023-12-20T10:19:55;7.50;99.90
81136;DHT22;70622;50.886;3.890;2023-12-20T10:22:21;7.60;99.90
81136;DHT22;70622;50.886;3.890;2023-12-20T10:24:46;7.60;99.90
81136;DHT22;70622;50.886;3.890;2023-12-20T10:27:12;7.60;99.90
81136;DHT22;70622;50.886;3.890;2023-12-20T10:29:38;7.60;99.90
81136;DHT22;70622;50.886;3.890;2023-12-20T10:34:49;7.80;99.90
81136;DHT22;70622;50.886;3.890;2023-12-20T10:37:15;7.80;99.90
81136;DHT22;70622;50.886;3.890;2023-12-20T10:39:41;7.80;99.90
81136;DHT22;70622;50.886;3.890;2023-12-20T10:42:08;7.80;99.90
81136;DHT22;70622;50.886;3.890;2023-12-20T10:44:34;7.80;99.90
81136;DHT22;70622;50.886;3.890;2023-12-20T10:46:59;7.80;99.90
81136;DHT22;70622;50.886;3.890;2023-12-20T10:49:25;7.90;99.90
81136;DHT22;70622;50.886;3.890;2023-12-20T10:51:52;7.90;99.90
81136;DHT22;70622;50.886;3.890;2023-12-20T10:54:18;7.90;99.90
81136;DHT22;70622;50.886;3.890;2023-12-20T10:56:44;8.00;99.90
81136;DHT22;70622;50.886;3.890;2023-12-20T10:59:11;8.00;99.60
81136;DHT22;70622;50.886;3.890;2023-12-20T11:01:38;8.00;99.60
81136;DHT22;70622;50.886;3.890;2023-12-20T11:04:06;8.00;99.60
81136;DHT22;70622;50.886;3.890;2023-12-20T11:06:46;8.10;99.60
81136;DHT22;70622;50.886;3.890;2023-12-20T11:17:15;8.30;99.20
81136;DHT22;70622;50.886;3.890;2023-12-20T11:22:35;8.20;99.00
81136;DHT22;70622;50.886;3.890;2023-12-20T11:27:40;8.30;99.50
81136;DHT22;70622;50.886;3.890;2023-12-20T11:30:06;8.20;99.50
81136;DHT22;70622;50.886;3.890;2023-12-20T11:32:34;8.30;99.80
81136;DHT22;70622;50.886;3.890;2023-12-20T11:35:01;8.30;99.70
81136;DHT22;70622;50.886;3.890;2023-12-20T11:37:41;8.40;99.60
81136;DHT22;70622;50.886;3.890;2023-12-20T11:40:16;8.40;99.60
81136;DHT22;70622;50.886;3.890;2023-12-20T11:42:42;8.40;99.50
81136;DHT22;70622;50.886;3.890;2023-12-20T11:45:09;8.40;99.60
81136;DHT22;70622;50.886;3.890;2023-12-20T11:47:35;8.40;99.60
81136;DHT22;70622;50.886;3.890;2023-12-20T11:50:01;8.50;99.50
81136;DHT22;70622;50.886;3.890;2023-12-20T11:52:30;8.60;99.30
81136;DHT22;70622;50.886;3.890;2023-12-20T11:54:56;8.60;99.00
81136;DHT22;70622;50.886;3.890;2023-12-20T11:57:22;8.60;99.00
81136;DHT22;70622;50.886;3.890;2023-12-20T11:59:47;8.60;98.90
81136;DHT22;70622;50.886;3.890;2023-12-20T12:02:13;8.60;99.00
81136;DHT22;70622;50.886;3.890;2023-12-20T12:04:41;8.70;98.80
81136;DHT22;70622;50.886;3.890;2023-12-20T12:07:06;8.70;98.80
81136;DHT22;70622;50.886;3.890;2023-12-20T12:09:32;8.70;99.00
81136;DHT22;70622;50.886;3.890;2023-12-20T12:11:58;8.70;98.90
81136;DHT22;70622;50.886;3.890;2023-12-20T12:14:23;8.70;99.00
81136;DHT22;70622;50.886;3.890;2023-12-20T12:16:49;8.70;99.00
81136;DHT22;70622;50.886;3.890;2023-12-20T12:19:22;8.70;99.20
81136;DHT22;70622;50.886;3.890;2023-12-20T12:21:49;8.70;99.10
81136;DHT22;70622;50.886;3.890;2023-12-20T12:24:14;8.70;99.10
81136;DHT22;70622;50.886;3.890;2023-12-20T12:26:40;8.70;99.20
81136;DHT22;70622;50.886;3.890;2023-12-20T12:29:08;8.80;99.10
81136;DHT22;70622;50.886;3.890;2023-12-20T12:31:35;8.80;99.10
81136;DHT22;70622;50.886;3.890;2023-12-20T12:34:01;8.80;99.10
81136;DHT22;70622;50.886;3.890;2023-12-20T12:36:27;8.80;98.90
81136;DHT22;70622;50.886;3.890;2023-12-20T12:38:53;8.90;99.00
81136;DHT22;70622;50.886;3.890;2023-12-20T12:41:21;8.80;99.00
81136;DHT22;70622;50.886;3.890;2023-12-20T12:43:47;8.80;99.20
81136;DHT22;70622;50.886;3.890;2023-12-20T12:46:12;8.90;99.20
81136;DHT22;70622;50.886;3.890;2023-12-20T12:48:38;8.90;99.10
81136;DHT22;70622;50.886;3.890;2023-12-20T12:51:04;9.00;99.00
81136;DHT22;70622;50.886;3.890;2023-12-20T12:53:29;8.90;98.80
81136;DHT22;70622;50.886;3.890;2023-12-20T12:55:55;9.00;99.20
81136;DHT22;70622;50.886;3.890;2023-12-20T12:58:20;9.10;99.00
81136;DHT22;70622;50.886;3.890;2023-12-20T13:00:47;9.20;98.80
81136;DHT22;70622;50.886;3.890;2023-12-20T13:03:12;9.30;98.50
81136;DHT22;70622;50.886;3.890;2023-12-20T13:05:38;9.40;98.20
81136;DHT22;70622;50.886;3.890;2023-12-20T13:08:04;9.40;97.80
81136;DHT22;70622;50.886;3.890;2023-12-20T13:10:30;9.50;97.80
81136;DHT22;70622;50.886;3.890;2023-12-20T13:12:55;9.50;97.90
81136;DHT22;70622;50.886;3.890;2023-12-20T13:15:21;9.50;97.90
81136;DHT22;70622;50.886;3.890;2023-12-20T13:17:46;9.60;97.90
81136;DHT22;70622;50.886;3.890;2023-12-20T13:20:12;9.60;97.80
81136;DHT22;70622;50.886;3.890;2023-12-20T13:22:37;9.60;97.90
81136;DHT22;70622;50.886;3.890;2023-12-20T13:25:03;9.60;97.90
81136;DHT22;70622;50.886;3.890;2023-12-20T13:27:29;9.60;97.90
81136;DHT22;70622;50.886;3.890;2023-12-20T13:29:54;9.60;97.90
81136;DHT22;70622;50.886;3.890;2023-12-20T13:32:20;9.40;98.10
81136;DHT22;70622;50.886;3.890;2023-12-20T13:34:45;9.40;98.30
81136;DHT22;70622;50.886;3.890;2023-12-20T13:37:11;9.40;98.40
81136;DHT22;70622;50.886;3.890;2023-12-20T13:39:36;9.40;98.40
81136;DHT22;70622;50.886;3.890;2023-12-20T13:42:02;9.50;98.30
81136;DHT22;70622;50.886;3.890;2023-12-20T13:44:28;9.50;98.20
81136;DHT22;70622;50.886;3.890;2023-12-20T13:46:53;9.50;98.30
81136;DHT22;70622;50.886;3.890;2023-12-20T13:49:19;9.60;98.30
81136;DHT22;70622;50.886;3.890;2023-12-20T13:51:44;9.50;98.30
81136;DHT22;70622;50.886;3.890;2023-12-20T13:54:10;9.50;98.20
81136;DHT22;70622;50.886;3.890;2023-12-20T13:56:36;9.50;98.30
81136;DHT22;70622;50.886;3.890;2023-12-20T13:59:01;9.40;98.50
81136;DHT22;70622;50.886;3.890;2023-12-20T14:01:27;9.40;98.50
81136;DHT22;70622;50.886;3.890;2023-12-20T14:03:52;9.40;98.50
81136;DHT22;70622;50.886;3.890;2023-12-20T14:06:18;9.40;98.70
81136;DHT22;70622;50.886;3.890;2023-12-20T14:08:43;9.40;98.50
81136;DHT22;70622;50.886;3.890;2023-12-20T14:11:09;9.50;98.50
81136;DHT22;70622;50.886;3.890;2023-12-20T14:13:35;9.50;98.50
81136;DHT22;70622;50.886;3.890;2023-12-20T14:16:01;9.50;98.40
81136;DHT22;70622;50.886;3.890;2023-12-20T14:18:28;9.50;98.20
81136;DHT22;70622;50.886;3.890;2023-12-20T14:20:55;9.50;98.30
81136;DHT22;70622;50.886;3.890;2023-12-20T14:23:21;9.40;98.30
81136;DHT22;70622;50.886;3.890;2023-12-20T14:25:47;9.40;98.10
81136;DHT22;70622;50.886;3.890;2023-12-20T14:28:14;9.40;98.00
81136;DHT22;70622;50.886;3.890;2023-12-20T14:30:40;9.50;98.00
81136;DHT22;70622;50.886;3.890;2023-12-20T14:33:05;9.50;98.10
81136;DHT22;70622;50.886;3.890;2023-12-20T14:35:31;9.50;97.90
81136;DHT22;70622;50.886;3.890;2023-12-20T14:37:56;9.50;97.80
81136;DHT22;70622;50.886;3.890;2023-12-20T14:40:22;9.60;98.00
81136;DHT22;70622;50.886;3.890;2023-12-20T14:42:48;9.60;98.30
81136;DHT22;70622;50.886;3.890;2023-12-20T14:45:14;9.60;97.70
81136;DHT22;70622;50.886;3.890;2023-12-20T14:47:41;9.60;97.70
81136;DHT22;70622;50.886;3.890;2023-12-20T14:50:07;9.60;97.80
81136;DHT22;70622;50.886;3.890;2023-12-20T14:52:33;9.60;97.90
81136;DHT22;70622;50.886;3.890;2023-12-20T14:55:02;9.60;98.00
81136;DHT22;70622;50.886;3.890;2023-12-20T14:57:28;9.50;98.10
81136;DHT22;70622;50.886;3.890;2023-12-20T14:59:55;9.50;98.20
81136;DHT22;70622;50.886;3.890;2023-12-20T15:02:20;9.50;98.40
81136;DHT22;70622;50.886;3.890;2023-12-20T15:04:46;9.60;98.50
81136;DHT22;70622;50.886;3.890;2023-12-20T15:07:11;9.50;98.50
81136;DHT22;70622;50.886;3.890;2023-12-20T15:09:37;9.50;98.70
81136;DHT22;70622;50.886;3.890;2023-12-20T15:12:03;9.40;98.80
81136;DHT22;70622;50.886;3.890;2023-12-20T15:14:29;9.40;98.90
81136;DHT22;70622;50.886;3.890;2023-12-20T15:16:55;9.40;98.80
81136;DHT22;70622;50.886;3.890;2023-12-20T15:19:21;9.40;98.90
81136;DHT22;70622;50.886;3.890;2023-12-20T15:21:46;9.40;99.10
81136;DHT22;70622;50.886;3.890;2023-12-20T15:24:12;9.40;98.90
81136;DHT22;70622;50.886;3.890;2023-12-20T15:26:42;9.40;99.00
81136;DHT22;70622;50.886;3.890;2023-12-20T15:29:09;9.40;99.10
81136;DHT22;70622;50.886;3.890;2023-12-20T15:31:47;9.40;99.10
81136;DHT22;70622;50.886;3.890;2023-12-20T15:34:13;9.40;99.20
81136;DHT22;70622;50.886;3.890;2023-12-20T15:36:39;9.40;99.40
81136;DHT22;70622;50.886;3.890;2023-12-20T15:39:05;9.40;99.30
81136;DHT22;70622;50.886;3.890;2023-12-20T15:41:35;9.50;99.30
81136;DHT22;70622;50.886;3.890;2023-12-20T15:44:01;9.50;99.40
81136;DHT22;70622;50.886;3.890;2023-12-20T15:46:27;9.40;99.50
81136;DHT22;70622;50.886;3.890;2023-12-20T15:48:53;9.40;99.80
81136;DHT22;70622;50.886;3.890;2023-12-20T15:51:20;9.40;99.90